Time;durP1;ratioP1;P1;durP2;ratioP2;P2;SDS_P1;SDS_P2;PMS_P1;PMS_P2;Temp;Humidity;BMP_temperature;BMP_pressure;BME280_temperature;BME280_humidity;BME280_pressure;Samples;Min_cycle;Max_cycle;Signal;HPM_P1;HPM_P2
2022/07/05 00:01:05;;;;;;;6.22;3.33;;;13.30;99.90;;;;;;5018351;28;20441;-78
2022/07/05 00:03:31;;;;;;;3.50;2.75;;;13.30;99.90;;;;;;5034361;28;20041;-77
2022/07/05 00:05:57;;;;;;;3.88;3.13;;;13.30;99.90;;;;;;5015447;28;20037;-77
2022/07/05 00:08:23;;;;;;;3.70;3.00;;;13.30;99.90;;;;;;5020576;28;20053;-77
2022/07/05 00:10:48;;;;;;;4.10;3.13;;;13.20;99.90;;;;;;5035083;28;20037;-77
2022/07/05 00:13:15;;;;;;;5.85;3.53;;;13.20;99.90;;;;;;5017305;28;20041;-77
2022/07/05 00:15:40;;;;;;;5.28;3.40;;;13.10;99.90;;;;;;5015684;28;20519;-77
2022/07/05 00:18:07;;;;;;;4.90;2.95;;;13.10;99.90;;;;;;5019334;28;20042;-77
2022/07/05 00:20:33;;;;;;;4.55;3.63;;;13.10;99.90;;;;;;5009409;28;20052;-78
2022/07/05 00:22:59;;;;;;;4.18;3.33;;;13.10;99.90;;;;;;5023318;28;20052;-77
2022/07/05 00:25:25;;;;;;;5.63;3.20;;;13.10;99.90;;;;;;5013087;28;20049;-77
2022/07/05 00:27:53;;;;;;;4.45;3.58;;;13.10;99.90;;;;;;5021143;28;20110;-77
2022/07/05 00:30:19;;;;;;;5.20;3.10;;;13.10;99.90;;;;;;5033419;28;20053;-78
2022/07/05 00:32:44;;;;;;;4.68;3.20;;;13.10;99.90;;;;;;5044952;28;20128;-77
2022/07/05 00:35:10;;;;;;;7.32;3.50;;;13.10;99.90;;;;;;5018913;28;20087;-78
2022/07/05 00:37:36;;;;;;;4.95;3.30;;;13.10;99.90;;;;;;5000311;28;20037;-77
2022/07/05 00:40:02;;;;;;;5.25;4.25;;;13.00;99.90;;;;;;5013146;28;20057;-76
2022/07/05 00:42:28;;;;;;;4.75;3.28;;;13.00;99.90;;;;;;5030559;28;20054;-77
2022/07/05 00:44:54;;;;;;;5.90;3.60;;;13.00;99.90;;;;;;5011308;28;20424;-77
2022/07/05 00:47:20;;;;;;;6.65;3.67;;;13.00;99.90;;;;;;5014749;28;20042;-77
2022/07/05 00:49:45;;;;;;;5.88;3.40;;;13.00;99.90;;;;;;5016252;28;20464;-77
2022/07/05 00:52:12;;;;;;;4.95;3.15;;;13.00;99.90;;;;;;5002124;28;20120;-77
2022/07/05 00:54:38;;;;;;;4.00;3.40;;;13.00;99.90;;;;;;5044706;28;20041;-76
2022/07/05 00:57:04;;;;;;;6.95;3.55;;;13.00;99.90;;;;;;5031067;28;20060;-78
2022/07/05 00:59:31;;;;;;;7.50;3.55;;;13.00;99.90;;;;;;5019751;28;20038;-77
2022/07/05 01:01:57;;;;;;;5.45;3.55;;;12.90;99.90;;;;;;5041132;28;20045;-77
2022/07/05 01:04:23;;;;;;;7.10;3.33;;;12.90;99.90;;;;;;5032752;28;20077;-77
2022/07/05 01:06:50;;;;;;;7.03;4.25;;;12.90;99.90;;;;;;5030747;28;20076;-77
2022/07/05 01:09:18;;;;;;;5.38;4.20;;;12.90;99.90;;;;;;5035141;28;20158;-76
2022/07/05 01:11:44;;;;;;;4.43;3.92;;;12.90;99.90;;;;;;5041550;28;20038;-77
2022/07/05 01:14:15;;;;;;;5.05;4.28;;;12.90;99.90;;;;;;5020727;28;20041;-77
2022/07/05 01:16:41;;;;;;;7.65;4.25;;;12.90;99.90;;;;;;5042621;28;20045;-77
2022/07/05 01:19:07;;;;;;;5.90;4.65;;;12.80;99.90;;;;;;5014417;28;20030;-77
2022/07/05 01:21:43;;;;;;;7.05;5.07;;;12.80;99.90;;;;;;5009279;28;20026;-74
2022/07/05 01:24:13;;;;;;;6.20;4.72;;;12.80;99.90;;;;;;5023162;28;20045;-74
2022/07/05 01:26:40;;;;;;;5.50;5.00;;;12.80;99.90;;;;;;5030409;28;20041;-75
2022/07/05 01:29:07;;;;;;;8.60;4.95;;;12.80;99.90;;;;;;5014986;28;20407;-74
2022/07/05 01:31:33;;;;;;;9.65;5.20;;;12.70;99.90;;;;;;5029139;28;20041;-75
2022/07/05 01:33:59;;;;;;;6.88;5.68;;;12.70;99.90;;;;;;5025204;28;20038;-74
2022/07/05 01:36:25;;;;;;;6.35;5.15;;;12.70;99.90;;;;;;5014321;28;20098;-75
2022/07/05 01:38:51;;;;;;;10.05;5.45;;;12.60;99.90;;;;;;5031010;28;20037;-74
2022/07/05 01:41:17;;;;;;;7.00;6.05;;;12.60;99.90;;;;;;5027541;28;20049;-74
2022/07/05 01:43:43;;;;;;;8.73;5.88;;;12.60;99.90;;;;;;5002542;28;20088;-74
2022/07/05 01:46:10;;;;;;;10.52;5.68;;;12.50;99.90;;;;;;5027550;28;20040;-75
2022/07/05 01:48:39;;;;;;;6.90;5.55;;;12.50;99.90;;;;;;5010672;28;20033;-77
2022/07/05 01:51:13;;;;;;;10.77;5.20;;;12.50;99.90;;;;;;5024872;28;20262;-77
2022/07/05 01:53:40;;;;;;;7.43;5.57;;;12.40;99.90;;;;;;5036109;28;20037;-76
2022/07/05 01:56:06;;;;;;;7.95;5.90;;;12.40;99.90;;;;;;5024246;28;20125;-77
2022/07/05 01:58:32;;;;;;;7.93;5.82;;;12.40;99.90;;;;;;5027105;28;20199;-77
2022/07/05 02:00:59;;;;;;;7.65;5.53;;;12.40;99.90;;;;;;5029846;28;20037;-77
2022/07/05 02:03:25;;;;;;;7.07;5.93;;;12.40;99.90;;;;;;5031757;28;20042;-77
2022/07/05 02:05:52;;;;;;;7.22;5.82;;;12.40;99.90;;;;;;5029119;28;20490;-77
2022/07/05 02:08:19;;;;;;;7.38;5.63;;;12.40;99.90;;;;;;5019524;28;20117;-77
2022/07/05 02:10:44;;;;;;;8.93;5.85;;;12.30;99.90;;;;;;5000336;28;20041;-77
2022/07/05 02:13:11;;;;;;;8.57;6.18;;;12.40;99.90;;;;;;5038542;28;20414;-77
2022/07/05 02:15:38;;;;;;;6.05;5.45;;;12.30;99.90;;;;;;5015171;28;20513;-77
2022/07/05 02:18:06;;;;;;;8.00;5.75;;;12.30;99.90;;;;;;5011752;28;20537;-77
2022/07/05 02:20:32;;;;;;;8.25;6.30;;;12.30;99.90;;;;;;5042953;28;20037;-77
2022/07/05 02:22:58;;;;;;;6.97;6.13;;;12.30;99.90;;;;;;5025080;28;20379;-77
2022/07/05 02:25:24;;;;;;;7.90;5.80;;;12.30;99.90;;;;;;5022847;28;20045;-77
2022/07/05 02:27:52;;;;;;;10.45;6.75;;;12.30;99.90;;;;;;5026793;28;20049;-77
2022/07/05 02:30:18;;;;;;;11.98;7.10;;;12.30;99.90;;;;;;5016996;28;20041;-77
2022/07/05 02:32:44;;;;;;;9.93;6.80;;;12.20;99.90;;;;;;5011003;28;20026;-78
2022/07/05 02:35:11;;;;;;;9.30;6.93;;;12.20;99.90;;;;;;5045067;28;20037;-77
2022/07/05 02:37:39;;;;;;;13.32;7.53;;;12.20;99.90;;;;;;4988086;28;20042;-76
2022/07/05 02:40:06;;;;;;;8.48;6.75;;;12.20;99.90;;;;;;5029519;28;20114;-77
2022/07/05 02:42:32;;;;;;;8.07;6.25;;;12.20;99.90;;;;;;5037008;28;20041;-76
2022/07/05 02:44:58;;;;;;;10.95;7.68;;;12.10;99.90;;;;;;5015552;28;20037;-77
2022/07/05 02:47:23;;;;;;;13.40;7.55;;;12.10;99.90;;;;;;5014256;28;20124;-76
2022/07/05 02:49:49;;;;;;;8.70;7.05;;;12.10;99.90;;;;;;5013054;28;20056;-76
2022/07/05 02:52:15;;;;;;;9.50;7.13;;;12.10;99.90;;;;;;4994348;28;20618;-77
2022/07/05 02:54:41;;;;;;;9.70;7.45;;;12.10;99.90;;;;;;5022390;28;20517;-76
2022/07/05 02:57:06;;;;;;;7.82;6.85;;;12.10;99.90;;;;;;5020409;28;20039;-77
2022/07/05 02:59:32;;;;;;;8.20;6.95;;;12.10;99.90;;;;;;5013284;28;20065;-77
2022/07/05 03:01:58;;;;;;;12.35;7.45;;;12.10;99.90;;;;;;5006800;28;20046;-76
2022/07/05 03:04:24;;;;;;;9.40;7.53;;;12.10;99.90;;;;;;5019833;28;20049;-76
2022/07/05 03:06:49;;;;;;;10.43;7.28;;;12.10;99.90;;;;;;5038072;28;20046;-76
2022/07/05 03:09:15;;;;;;;9.05;7.68;;;12.10;99.90;;;;;;5008046;28;20034;-76
2022/07/05 03:11:41;;;;;;;8.65;7.53;;;12.10;99.90;;;;;;4986244;28;20052;-77
2022/07/05 03:14:06;;;;;;;9.30;7.65;;;12.10;99.90;;;;;;4993018;28;20037;-76
2022/07/05 03:16:33;;;;;;;10.50;8.32;;;12.10;99.90;;;;;;5027215;28;20041;-76
2022/07/05 03:18:59;;;;;;;10.88;7.93;;;12.10;99.90;;;;;;5012037;28;20041;-76
2022/07/05 03:21:25;;;;;;;9.02;7.78;;;12.10;99.90;;;;;;5008197;28;20453;-76
2022/07/05 03:23:51;;;;;;;10.35;8.00;;;12.10;99.90;;;;;;5012973;28;20033;-77
2022/07/05 03:26:16;;;;;;;10.85;7.72;;;12.20;99.90;;;;;;5011336;28;20040;-76
2022/07/05 03:28:42;;;;;;;10.85;8.02;;;12.20;99.90;;;;;;5011021;28;20052;-76
2022/07/05 03:31:08;;;;;;;13.23;8.82;;;12.10;99.90;;;;;;4993453;28;20099;-76
2022/07/05 03:33:34;;;;;;;12.13;8.20;;;12.20;99.90;;;;;;5025527;28;20052;-76
2022/07/05 03:35:59;;;;;;;11.32;8.52;;;12.20;99.90;;;;;;5002868;28;20781;-76
2022/07/05 03:38:25;;;;;;;10.05;8.05;;;12.20;99.90;;;;;;5026292;28;20037;-77
2022/07/05 03:40:51;;;;;;;11.38;8.73;;;12.20;99.90;;;;;;5009799;28;20489;-77
2022/07/05 03:43:16;;;;;;;14.45;8.88;;;12.20;99.90;;;;;;5009415;28;20071;-76
2022/07/05 03:45:42;;;;;;;11.82;8.68;;;12.20;99.90;;;;;;5026752;28;20347;-76
2022/07/05 03:48:08;;;;;;;10.30;8.13;;;12.20;99.90;;;;;;4979335;28;20639;-76
2022/07/05 03:50:34;;;;;;;11.45;8.90;;;12.20;99.90;;;;;;5009418;28;20041;-75
2022/07/05 03:52:59;;;;;;;12.95;9.15;;;12.20;99.90;;;;;;5031356;28;20082;-76
2022/07/05 03:55:25;;;;;;;10.63;8.45;;;12.20;99.90;;;;;;5011740;28;20052;-76
2022/07/05 03:57:51;;;;;;;11.88;9.18;;;12.10;99.90;;;;;;5015426;28;20510;-76
2022/07/05 04:00:17;;;;;;;10.90;8.43;;;12.20;99.90;;;;;;5027973;28;20093;-75
2022/07/05 04:02:42;;;;;;;11.63;9.15;;;12.20;99.90;;;;;;5040129;28;20041;-76
2022/07/05 04:05:08;;;;;;;10.90;8.70;;;12.20;99.90;;;;;;5016396;28;20441;-75
2022/07/05 04:07:34;;;;;;;14.63;9.23;;;12.20;99.90;;;;;;5013842;28;20038;-75
2022/07/05 04:10:00;;;;;;;13.38;9.02;;;12.20;99.90;;;;;;5012261;28;20042;-76
2022/07/05 04:12:26;;;;;;;12.48;9.25;;;12.20;99.90;;;;;;5013847;28;20068;-76
2022/07/05 04:14:52;;;;;;;14.38;9.45;;;12.20;99.90;;;;;;5013093;28;20095;-77
2022/07/05 04:17:18;;;;;;;13.13;9.95;;;12.20;99.90;;;;;;4996174;28;20045;-76
2022/07/05 04:19:44;;;;;;;11.07;9.05;;;12.20;99.90;;;;;;4997596;28;20037;-76
2022/07/05 04:22:10;;;;;;;13.65;10.35;;;12.30;99.90;;;;;;5011520;28;20491;-75
2022/07/05 04:25:16;;;;;;;11.50;9.38;;;12.30;99.90;;;;;;4997631;28;20621;-77
2022/07/05 04:27:22;;;;;;;16.88;9.98;;;12.30;99.90;;;;;;5027384;28;20038;-75
2022/07/05 04:29:47;;;;;;;14.25;10.00;;;12.30;99.90;;;;;;5010283;28;20048;-76
2022/07/05 04:32:13;;;;;;;11.75;9.93;;;12.30;99.90;;;;;;4989855;28;20044;-76
2022/07/05 04:34:39;;;;;;;11.55;10.35;;;12.40;99.90;;;;;;5005739;28;20501;-76
2022/07/05 04:37:04;;;;;;;17.80;11.05;;;12.40;99.90;;;;;;5026621;28;20051;-76
2022/07/05 04:39:30;;;;;;;13.52;10.00;;;12.40;99.90;;;;;;5035637;28;20568;-76
2022/07/05 04:41:56;;;;;;;13.88;9.85;;;12.40;99.90;;;;;;5023257;28;20046;-76
2022/07/05 04:44:21;;;;;;;14.20;10.07;;;12.50;99.90;;;;;;4995387;28;20064;-76
2022/07/05 04:46:47;;;;;;;12.90;9.98;;;12.50;99.90;;;;;;5012646;28;21334;-77
2022/07/05 04:49:13;;;;;;;10.75;9.63;;;12.60;99.90;;;;;;5012969;28;20536;-76
2022/07/05 04:51:38;;;;;;;13.52;9.63;;;12.60;99.90;;;;;;5013062;28;20029;-76
2022/07/05 04:54:04;;;;;;;12.98;10.07;;;12.60;99.90;;;;;;4984284;28;20584;-76
2022/07/05 04:56:30;;;;;;;12.00;9.80;;;12.60;99.90;;;;;;5031154;28;20037;-76
2022/07/05 04:58:56;;;;;;;11.57;10.13;;;12.70;99.90;;;;;;4991158;28;20087;-75
2022/07/05 05:01:21;;;;;;;10.82;9.20;;;12.70;99.90;;;;;;4997654;28;20435;-76
2022/07/05 05:03:47;;;;;;;11.27;9.98;;;12.70;99.90;;;;;;4998736;28;20049;-76
2022/07/05 05:06:14;;;;;;;14.68;9.30;;;12.70;99.90;;;;;;5011396;28;20073;-76
2022/07/05 05:08:41;;;;;;;11.45;9.93;;;12.80;99.90;;;;;;5030931;28;20068;-76
2022/07/05 05:11:07;;;;;;;14.27;10.25;;;12.80;99.90;;;;;;5014359;28;20045;-76
2022/07/05 05:13:33;;;;;;;11.90;9.13;;;12.90;99.90;;;;;;4994767;28;20059;-76
2022/07/05 05:15:59;;;;;;;12.00;9.02;;;12.90;99.90;;;;;;5023515;28;20042;-76
2022/07/05 05:18:26;;;;;;;11.85;9.82;;;12.90;99.90;;;;;;5013635;28;20037;-77
2022/07/05 05:20:55;;;;;;;10.50;9.40;;;12.90;99.90;;;;;;5022737;28;20073;-76
2022/07/05 05:23:22;;;;;;;11.02;9.07;;;13.00;99.90;;;;;;5011863;28;20507;-77
2022/07/05 05:25:49;;;;;;;13.27;9.05;;;13.00;99.90;;;;;;5024266;28;20053;-76
2022/07/05 05:28:15;;;;;;;10.77;9.52;;;13.10;99.90;;;;;;5014087;28;20045;-76
2022/07/05 05:30:41;;;;;;;11.50;8.93;;;13.20;99.90;;;;;;5030336;28;20026;-76
2022/07/05 05:33:06;;;;;;;12.05;9.88;;;13.20;99.90;;;;;;5014377;28;20112;-76
2022/07/05 05:35:32;;;;;;;15.63;9.65;;;13.30;99.90;;;;;;4998485;28;20076;-76
2022/07/05 05:37:58;;;;;;;11.10;9.23;;;13.30;99.90;;;;;;5013517;28;20041;-76
2022/07/05 05:40:25;;;;;;;10.27;8.73;;;13.40;99.90;;;;;;5013792;28;20107;-77
2022/07/05 05:42:52;;;;;;;10.55;8.43;;;13.50;99.90;;;;;;5016247;28;20107;-76
2022/07/05 05:45:19;;;;;;;9.57;7.85;;;13.60;99.90;;;;;;5013413;28;20370;-77
2022/07/05 05:47:49;;;;;;;9.90;8.43;;;13.60;99.90;;;;;;5014738;28;20038;-77
2022/07/05 05:50:18;;;;;;;9.10;8.05;;;13.70;99.90;;;;;;5021096;28;20034;-77
2022/07/05 05:52:44;;;;;;;10.80;8.10;;;13.80;99.90;;;;;;5013735;28;20040;-77
2022/07/05 05:55:10;;;;;;;10.30;7.78;;;13.80;99.90;;;;;;5030866;28;20041;-77
2022/07/05 05:57:36;;;;;;;12.77;7.60;;;13.90;99.90;;;;;;5004623;28;20423;-77
2022/07/05 06:00:04;;;;;;;9.13;7.75;;;14.00;99.90;;;;;;5020406;28;20410;-76
2022/07/05 06:02:30;;;;;;;9.38;6.93;;;14.10;99.90;;;;;;5040197;28;20575;-77
2022/07/05 06:04:55;;;;;;;9.50;8.20;;;14.20;99.90;;;;;;5012280;28;20068;-77
2022/07/05 06:07:21;;;;;;;9.25;7.50;;;14.20;99.90;;;;;;5012902;28;20519;-77
2022/07/05 06:09:47;;;;;;;9.20;7.45;;;14.30;99.90;;;;;;5008630;28;20045;-77
2022/07/05 06:12:13;;;;;;;9.93;6.43;;;14.40;99.90;;;;;;5013425;28;20391;-77
2022/07/05 06:14:39;;;;;;;8.85;6.63;;;14.50;99.90;;;;;;5005914;28;20038;-77
2022/07/05 06:17:05;;;;;;;10.43;7.22;;;14.60;99.90;;;;;;5011057;28;20086;-77
2022/07/05 06:19:30;;;;;;;8.80;6.38;;;14.60;99.90;;;;;;5019399;28;20045;-78
2022/07/05 06:21:56;;;;;;;8.90;6.75;;;14.70;99.90;;;;;;5038388;28;20053;-77
2022/07/05 06:24:22;;;;;;;8.98;6.05;;;14.80;99.90;;;;;;5032585;28;20112;-77
2022/07/05 06:26:47;;;;;;;8.77;5.50;;;14.90;99.90;;;;;;5006304;28;20041;-77
2022/07/05 06:29:13;;;;;;;9.95;6.38;;;15.00;99.90;;;;;;5019584;28;20040;-77
2022/07/05 06:31:39;;;;;;;7.85;5.55;;;15.10;99.90;;;;;;5006553;28;20068;-78
2022/07/05 06:34:05;;;;;;;6.95;5.60;;;15.20;99.90;;;;;;5023223;28;20034;-77
2022/07/05 06:36:30;;;;;;;6.75;5.40;;;15.20;99.90;;;;;;5035305;28;20403;-78
2022/07/05 06:38:56;;;;;;;6.85;5.10;;;15.30;99.90;;;;;;5025607;28;20068;-78
2022/07/05 06:41:22;;;;;;;5.55;4.63;;;15.40;99.90;;;;;;4995941;28;20049;-77
2022/07/05 06:43:47;;;;;;;6.00;4.60;;;15.50;99.90;;;;;;4978316;28;20067;-77
2022/07/05 06:46:13;;;;;;;5.80;4.32;;;15.60;99.90;;;;;;5020139;28;20045;-78
2022/07/05 06:48:39;;;;;;;6.63;4.07;;;15.70;99.90;;;;;;5017105;28;20128;-78
2022/07/05 06:51:06;;;;;;;5.97;3.83;;;15.90;99.90;;;;;;5018636;28;20509;-77
2022/07/05 06:53:31;;;;;;;8.70;4.00;;;16.00;99.90;;;;;;5002958;28;20469;-77
2022/07/05 06:55:57;;;;;;;6.40;3.60;;;16.00;99.90;;;;;;5004634;28;20100;-78
2022/07/05 06:58:23;;;;;;;8.63;3.45;;;16.20;99.90;;;;;;5008883;28;20041;-77
2022/07/05 07:00:49;;;;;;;3.30;2.55;;;16.30;99.90;;;;;;5025400;28;20509;-77
2022/07/05 07:03:15;;;;;;;4.88;2.70;;;16.40;99.90;;;;;;5021610;28;20046;-78
2022/07/05 07:05:43;;;;;;;4.75;3.10;;;16.50;99.90;;;;;;5019389;28;20099;-78
2022/07/05 07:10:52;;;;;;;6.90;2.90;;;16.70;99.90;;;;;;5012787;28;20049;-77
2022/07/05 07:13:19;;;;;;;5.30;2.42;;;16.80;99.90;;;;;;5005171;28;20477;-77
2022/07/05 07:15:47;;;;;;;3.00;2.50;;;17.00;99.90;;;;;;5000954;28;20034;-78
2022/07/05 07:18:14;;;;;;;6.30;2.70;;;17.00;99.90;;;;;;5038830;28;20042;-77
2022/07/05 07:20:39;;;;;;;6.47;2.55;;;17.00;99.90;;;;;;5002751;28;20102;-78
2022/07/05 07:23:05;;;;;;;4.88;2.50;;;17.00;99.90;;;;;;5024253;28;20046;-78
2022/07/05 07:25:31;;;;;;;4.15;2.40;;;17.20;99.90;;;;;;5021730;28;20045;-78
2022/07/05 07:27:57;;;;;;;5.40;2.38;;;17.30;99.90;;;;;;5012566;28;20072;-77
2022/07/05 07:30:25;;;;;;;4.28;2.47;;;17.30;99.90;;;;;;4979175;28;20101;-78
2022/07/05 07:32:52;;;;;;;5.18;2.30;;;17.40;99.90;;;;;;5028220;28;20407;-78
2022/07/05 07:35:18;;;;;;;4.35;2.55;;;17.50;99.90;;;;;;5024634;28;20034;-79
2022/07/05 07:37:43;;;;;;;7.22;2.50;;;17.60;99.90;;;;;;5004903;28;20044;-78
2022/07/05 07:40:10;;;;;;;7.75;2.55;;;17.60;99.90;;;;;;5011634;28;20058;-77
2022/07/05 07:42:36;;;;;;;13.68;2.83;;;17.70;99.90;;;;;;5023890;28;20072;-77
2022/07/05 07:45:03;;;;;;;4.00;2.80;;;17.80;99.90;;;;;;5018980;28;20077;-78
2022/07/05 07:47:36;;;;;;;5.75;3.38;;;17.70;99.90;;;;;;5021599;28;20052;-78
2022/07/05 07:50:03;;;;;;;6.40;3.25;;;18.00;99.90;;;;;;5001149;28;20050;-78
2022/07/05 07:52:30;;;;;;;5.82;2.95;;;18.00;99.90;;;;;;5013422;28;20029;-78
2022/07/05 07:54:56;;;;;;;3.70;2.72;;;18.00;99.90;;;;;;5007623;28;20048;-78
2022/07/05 07:57:22;;;;;;;6.32;2.15;;;18.20;99.90;;;;;;5025589;28;20049;-78
2022/07/05 07:59:48;;;;;;;4.90;2.53;;;18.30;99.90;;;;;;5033026;28;20402;-76
2022/07/05 08:02:14;;;;;;;4.40;2.20;;;18.50;99.90;;;;;;5032468;28;20049;-78
2022/07/05 08:04:39;;;;;;;6.18;2.22;;;18.50;99.90;;;;;;5026844;28;20124;-78
2022/07/05 08:07:05;;;;;;;2.95;2.20;;;18.40;99.90;;;;;;5018526;28;20064;-77
2022/07/05 08:09:31;;;;;;;2.70;2.00;;;18.40;99.90;;;;;;5010465;28;20567;-77
2022/07/05 08:11:57;;;;;;;6.93;2.30;;;18.30;99.90;;;;;;5023122;28;20045;-77
2022/07/05 08:14:23;;;;;;;4.75;2.30;;;18.30;99.90;;;;;;5030736;28;20088;-77
2022/07/05 08:16:49;;;;;;;3.85;2.17;;;18.40;99.90;;;;;;5017811;28;20410;-77
2022/07/05 08:22:01;;;;;;;3.60;2.10;;;18.40;99.90;;;;;;5030908;28;20042;-76
2022/07/05 08:24:27;;;;;;;3.00;2.00;;;18.50;99.90;;;;;;5029985;28;20037;-77
2022/07/05 08:26:53;;;;;;;3.17;1.50;;;18.50;99.90;;;;;;5032802;28;20029;-77
2022/07/05 08:29:18;;;;;;;7.57;1.50;;;18.60;99.90;;;;;;5026909;28;20407;-76
2022/07/05 08:31:49;;;;;;;3.00;1.70;;;18.80;99.90;;;;;;5017098;28;20034;-76
2022/07/05 08:34:15;;;;;;;3.22;1.60;;;18.90;99.90;;;;;;5029503;28;20117;-76
2022/07/05 08:36:41;;;;;;;13.52;2.78;;;18.90;99.90;;;;;;5024120;28;20048;-77
2022/07/05 08:39:08;;;;;;;6.53;1.85;;;18.80;99.90;;;;;;5022213;28;20516;-77
2022/07/05 08:41:36;;;;;;;1.75;1.35;;;18.80;99.90;;;;;;5024307;28;20157;-77
2022/07/05 08:44:03;;;;;;;4.43;1.92;;;18.80;99.90;;;;;;5006425;28;20478;-79
2022/07/05 08:46:34;;;;;;;3.17;1.58;;;19.10;99.90;;;;;;4998897;28;20049;-77
2022/07/05 08:49:06;;;;;;;1.25;1.10;;;19.30;99.90;;;;;;5043238;28;20045;-77
2022/07/05 08:51:41;;;;;;;3.72;1.38;;;19.40;99.90;;;;;;5022913;28;20502;-77
2022/07/05 08:54:09;;;;;;;3.58;1.40;;;19.30;99.90;;;;;;5022063;28;20501;-77
2022/07/05 08:56:37;;;;;;;3.63;1.30;;;19.30;99.90;;;;;;5043295;28;20076;-77
2022/07/05 08:59:03;;;;;;;4.45;1.40;;;19.30;99.90;;;;;;5033972;28;20046;-78
2022/07/05 09:01:31;;;;;;;2.90;1.30;;;19.20;99.90;;;;;;5028156;28;20515;-77
2022/07/05 09:04:01;;;;;;;2.22;1.48;;;19.20;99.90;;;;;;5011342;28;20495;-77
2022/07/05 09:06:27;;;;;;;3.35;1.50;;;19.20;99.90;;;;;;5034296;28;20034;-77
2022/07/05 09:08:58;;;;;;;3.42;1.48;;;19.10;99.90;;;;;;5012920;28;20517;-77
2022/07/05 09:11:33;;;;;;;2.15;1.42;;;19.00;99.90;;;;;;5034356;28;20121;-76
2022/07/05 09:13:58;;;;;;;3.17;1.77;;;19.10;99.90;;;;;;5025428;28;20457;-77
2022/07/05 09:16:24;;;;;;;4.85;1.50;;;19.30;99.90;;;;;;5025869;28;20045;-77
2022/07/05 09:18:53;;;;;;;4.57;1.65;;;19.60;99.90;;;;;;5023540;28;20051;-78
2022/07/05 09:21:27;;;;;;;2.92;1.60;;;19.80;99.90;;;;;;5018379;28;20045;-77
2022/07/05 09:24:04;;;;;;;6.90;1.95;;;19.80;99.90;;;;;;5028968;28;20056;-77
2022/07/05 09:26:40;;;;;;;4.03;1.65;;;19.60;99.90;;;;;;5012757;28;20050;-78
2022/07/05 09:29:09;;;;;;;3.45;1.45;;;19.40;99.90;;;;;;5011587;28;20204;-76
2022/07/05 09:31:36;;;;;;;2.22;1.25;;;19.40;99.90;;;;;;5041578;28;20046;-77
2022/07/05 09:34:19;;;;;;;3.42;1.40;;;19.40;99.90;;;;;;5023479;28;20057;-77
2022/07/05 09:37:02;;;;;;;2.53;1.48;;;19.70;99.90;;;;;;5020233;28;20048;-78
2022/07/05 09:39:31;;;;;;;3.83;1.60;;;19.90;99.90;;;;;;5012557;28;20499;-78
2022/07/05 09:42:12;;;;;;;4.82;1.50;;;19.80;99.90;;;;;;5056072;28;20072;-78
2022/07/05 09:44:41;;;;;;;3.72;1.80;;;19.70;99.90;;;;;;5021211;28;20037;-79
2022/07/05 09:47:12;;;;;;;3.05;1.35;;;19.90;99.90;;;;;;5031694;28;20034;-80
2022/07/05 09:49:46;;;;;;;2.45;1.35;;;20.10;99.90;;;;;;5024265;28;20042;-77
2022/07/05 09:52:27;;;;;;;3.13;1.30;;;20.20;99.90;;;;;;5028868;28;20127;-78
2022/07/05 09:55:07;;;;;;;4.20;1.30;;;20.50;99.90;;;;;;5026025;28;20049;-79
2022/07/05 09:57:37;;;;;;;1.95;1.33;;;20.60;99.80;;;;;;5025540;28;20060;-78
2022/07/05 10:00:39;;;;;;;3.58;1.60;;;20.60;99.90;;;;;;5028859;28;20511;-78
2022/07/05 10:03:05;;;;;;;3.00;1.30;;;20.40;99.20;;;;;;5024689;28;20123;-78
2022/07/05 10:05:32;;;;;;;3.60;1.40;;;20.40;99.90;;;;;;5025135;28;20049;-79
2022/07/05 10:08:00;;;;;;;3.40;1.17;;;20.10;99.50;;;;;;5015030;28;20041;-78
2022/07/05 10:10:27;;;;;;;2.97;1.10;;;20.20;99.70;;;;;;5021005;28;20221;-78
2022/07/05 10:12:58;;;;;;;4.10;1.27;;;20.50;98.40;;;;;;5013541;28;20117;-78
2022/07/05 10:15:43;;;;;;;3.25;1.40;;;20.60;97.50;;;;;;5038384;28;20037;-79
2022/07/05 10:18:12;;;;;;;4.50;1.58;;;20.50;97.10;;;;;;4996742;28;20101;-78
2022/07/05 10:20:40;;;;;;;1.88;1.17;;;20.30;98.20;;;;;;5023131;28;20406;-79
2022/07/05 10:23:15;;;;;;;2.60;1.33;;;20.10;98.50;;;;;;5022870;28;20123;-78
2022/07/05 10:25:44;;;;;;;2.28;1.25;;;20.10;98.80;;;;;;5032627;28;20132;-78
2022/07/05 10:28:10;;;;;;;4.43;1.48;;;20.10;99.00;;;;;;5011514;28;20165;-78
2022/07/05 10:30:37;;;;;;;3.20;1.40;;;20.30;98.90;;;;;;5031288;28;20401;-78
2022/07/05 10:33:05;;;;;;;2.42;1.30;;;20.60;99.10;;;;;;5015091;28;20124;-79
2022/07/05 10:35:31;;;;;;;1.80;1.23;;;20.90;98.40;;;;;;5035142;28;20028;-78
2022/07/05 10:37:59;;;;;;;3.63;1.38;;;21.20;97.60;;;;;;5004655;28;20044;-79
2022/07/05 10:40:26;;;;;;;2.58;1.20;;;21.40;97.30;;;;;;4997124;28;20146;-79
2022/07/05 10:42:56;;;;;;;1.85;1.30;;;21.20;96.90;;;;;;4989714;28;20037;-79
2022/07/05 10:45:32;;;;;;;5.47;1.40;;;21.30;96.70;;;;;;5025759;28;20076;-79
2022/07/05 10:48:10;;;;;;;4.20;1.50;;;21.30;97.30;;;;;;5014328;28;20141;-78
2022/07/05 10:51:00;;;;;;;2.38;1.25;;;21.10;96.70;;;;;;5030984;28;20487;-78
2022/07/05 10:53:43;;;;;;;4.85;1.15;;;21.00;97.10;;;;;;5035688;28;20041;-78
2022/07/05 10:56:12;;;;;;;2.65;1.40;;;21.10;97.60;;;;;;5033171;28;20037;-78
2022/07/05 10:58:45;;;;;;;3.72;1.60;;;21.00;97.50;;;;;;5030731;28;20029;-80
2022/07/05 11:01:20;;;;;;;5.32;1.60;;;20.80;96.50;;;;;;5016120;28;20428;-80
2022/07/05 11:04:01;;;;;;;3.13;1.55;;;20.80;96.70;;;;;;5030561;28;20041;-80
2022/07/05 11:06:42;;;;;;;4.43;1.65;;;20.70;97.10;;;;;;5014112;28;20308;-79
2022/07/05 11:09:11;;;;;;;4.25;1.50;;;20.60;97.40;;;;;;5033045;28;20522;-79
2022/07/05 11:11:40;;;;;;;2.50;1.63;;;20.50;97.50;;;;;;5054093;28;20433;-78
2022/07/05 11:14:25;;;;;;;6.00;2.20;;;20.50;97.70;;;;;;5006760;28;20038;-79
2022/07/05 11:17:11;;;;;;;5.22;1.52;;;20.40;97.70;;;;;;5002872;28;20037;-79
2022/07/05 11:20:04;;;;;;;2.65;1.50;;;20.40;97.80;;;;;;5013039;28;20643;-79
2022/07/05 11:22:30;;;;;;;2.45;1.23;;;20.70;98.00;;;;;;5021659;28;20087;-79
2022/07/05 11:24:57;;;;;;;3.65;1.30;;;20.90;98.40;;;;;;5045474;28;20376;-80
2022/07/05 11:27:23;;;;;;;6.22;1.80;;;21.00;98.10;;;;;;5013000;28;20525;-81
2022/07/05 11:29:51;;;;;;;4.55;1.55;;;21.10;97.80;;;;;;5015020;28;20053;-82
2022/07/05 11:32:27;;;;;;;2.53;1.25;;;21.00;97.60;;;;;;5011672;28;20041;-83
2022/07/05 11:34:55;;;;;;;5.90;1.70;;;21.00;97.30;;;;;;5023896;28;20048;-82
2022/07/05 11:37:32;;;;;;;3.78;1.27;;;20.70;97.00;;;;;;5011392;28;20045;-83
2022/07/05 11:40:11;;;;;;;3.72;1.55;;;20.60;97.10;;;;;;4985667;28;20530;-82
2022/07/05 11:42:39;;;;;;;4.25;1.30;;;20.50;97.10;;;;;;5045330;28;20076;-83
2022/07/05 11:45:07;;;;;;;2.40;1.40;;;20.40;97.30;;;;;;5015551;28;20041;-83
2022/07/05 11:47:34;;;;;;;4.22;1.40;;;20.30;97.50;;;;;;5012433;28;20037;-82
2022/07/05 11:50:00;;;;;;;3.15;2.05;;;20.30;97.40;;;;;;5026543;28;20041;-84
2022/07/05 11:52:32;;;;;;;2.47;1.50;;;20.20;97.50;;;;;;5015968;28;20136;-82
2022/07/05 11:54:59;;;;;;;4.65;1.70;;;20.20;98.00;;;;;;5002253;28;20042;-83
2022/07/05 11:57:25;;;;;;;9.18;2.05;;;20.10;97.80;;;;;;5025314;28;20077;-83
2022/07/05 11:59:51;;;;;;;3.83;1.85;;;20.00;97.90;;;;;;5009099;28;20081;-84
2022/07/05 12:02:17;;;;;;;5.03;1.55;;;20.00;97.90;;;;;;5025135;28;20044;-82
2022/07/05 12:04:54;;;;;;;4.88;1.42;;;20.00;97.90;;;;;;5008571;28;20052;-83
2022/07/05 12:07:31;;;;;;;3.63;1.45;;;20.20;97.50;;;;;;5010460;28;20104;-81
2022/07/05 12:12:44;;;;;;;1.92;1.55;;;20.80;97.30;;;;;;5015478;28;20091;-81
2022/07/05 12:15:17;;;;;;;3.78;1.95;;;20.90;96.80;;;;;;5011552;28;20073;-79
2022/07/05 12:17:45;;;;;;;3.65;2.35;;;21.00;96.20;;;;;;5028023;28;20033;-82
2022/07/05 12:20:13;;;;;;;7.10;1.80;;;20.90;96.40;;;;;;5042064;28;20079;-81
2022/07/05 12:22:42;;;;;;;5.32;1.55;;;21.00;96.60;;;;;;5013410;28;20073;-82
2022/07/05 12:25:11;;;;;;;2.85;1.35;;;21.00;96.30;;;;;;5032379;28;20077;-83
2022/07/05 12:27:39;;;;;;;5.22;1.50;;;21.20;96.00;;;;;;5015691;28;20041;-81
2022/07/05 12:30:06;;;;;;;3.78;1.40;;;21.20;96.30;;;;;;5008719;28;20076;-82
2022/07/05 12:32:32;;;;;;;4.05;1.40;;;21.30;96.40;;;;;;5016283;28;20306;-81
2022/07/05 12:35:02;;;;;;;5.28;1.23;;;21.30;96.50;;;;;;5027624;28;20042;-79
2022/07/05 12:37:27;;;;;;;3.33;1.27;;;21.30;96.70;;;;;;5030889;28;20033;-80
2022/07/05 12:40:07;;;;;;;2.25;1.40;;;21.40;96.40;;;;;;5011125;28;20058;-80
2022/07/05 12:42:36;;;;;;;4.55;1.45;;;21.50;95.60;;;;;;5056247;28;20110;-81
2022/07/05 12:45:13;;;;;;;2.88;1.20;;;21.50;95.80;;;;;;5002520;28;20120;-81
2022/07/05 12:47:53;;;;;;;6.25;1.70;;;21.50;95.20;;;;;;5014662;28;20457;-84
2022/07/05 12:50:20;;;;;;;3.00;1.50;;;21.60;94.20;;;;;;5001953;28;20037;-82
2022/07/05 12:58:53;;;;;;;5.28;1.13;;;21.90;94.20;;;;;;5039628;28;20049;-81
2022/07/05 13:01:27;;;;;;;4.53;1.15;;;22.10;93.00;;;;;;5023177;28;20076;-80